sensor_id;sensor_type;location;lat;lon;timestamp;P1;durP1;ratioP1;P2;durP2;ratioP2
80854;SDS011;70272;49.222;-122.892;2023-07-29T00:01:35;4.22;;;3.05;;
80854;SDS011;70272;49.222;-122.892;2023-07-29T00:04:02;5.28;;;2.75;;
80854;SDS011;70272;49.222;-122.892;2023-07-29T00:06:28;4.28;;;2.63;;
80854;SDS011;70272;49.222;-122.892;2023-07-29T00:08:54;4.70;;;2.85;;
80854;SDS011;70272;49.222;-122.892;2023-07-29T00:11:21;5.53;;;2.95;;
80854;SDS011;70272;49.222;-122.892;2023-07-29T00:13:47;7.47;;;2.67;;
80854;SDS011;70272;49.222;-122.892;2023-07-29T00:16:15;3.90;;;3.03;;
80854;SDS011;70272;49.222;-122.892;2023-07-29T00:18:43;5.88;;;2.75;;
80854;SDS011;70272;49.222;-122.892;2023-07-29T00:21:09;3.28;;;2.72;;
80854;SDS011;70272;49.222;-122.892;2023-07-29T00:23:35;3.92;;;2.50;;
80854;SDS011;70272;49.222;-122.892;2023-07-29T00:26:02;4.90;;;2.53;;
80854;SDS011;70272;49.222;-122.892;2023-07-29T00:28:28;4.15;;;2.50;;
80854;SDS011;70272;49.222;-122.892;2023-07-29T00:30:54;4.78;;;2.50;;
80854;SDS011;70272;49.222;-122.892;2023-07-29T00:33:21;4.70;;;2.55;;
80854;SDS011;70272;49.222;-122.892;2023-07-29T00:35:47;4.18;;;2.83;;
80854;SDS011;70272;49.222;-122.892;2023-07-29T00:38:13;4.10;;;2.60;;
80854;SDS011;70272;49.222;-122.892;2023-07-29T00:40:39;6.05;;;2.80;;
80854;SDS011;70272;49.222;-122.892;2023-07-29T00:43:06;3.75;;;2.60;;
80854;SDS011;70272;49.222;-122.892;2023-07-29T00:45:32;5.18;;;2.83;;
80854;SDS011;70272;49.222;-122.892;2023-07-29T00:47:59;5.38;;;2.60;;
80854;SDS011;70272;49.222;-122.892;2023-07-29T00:50:25;4.03;;;2.80;;
80854;SDS011;70272;49.222;-122.892;2023-07-29T00:52:53;4.45;;;2.63;;
80854;SDS011;70272;49.222;-122.892;2023-07-29T00:55:20;4.70;;;2.65;;
80854;SDS011;70272;49.222;-122.892;2023-07-29T00:57:46;5.35;;;2.60;;
80854;SDS011;70272;49.222;-122.892;2023-07-29T01:00:15;4.03;;;2.60;;
80854;SDS011;70272;49.222;-122.892;2023-07-29T01:02:42;3.25;;;2.58;;
80854;SDS011;70272;49.222;-122.892;2023-07-29T01:05:08;3.55;;;2.55;;
80854;SDS011;70272;49.222;-122.892;2023-07-29T01:07:46;4.43;;;2.60;;
80854;SDS011;70272;49.222;-122.892;2023-07-29T01:13:20;3.42;;;2.50;;
80854;SDS011;70272;49.222;-122.892;2023-07-29T01:15:54;3.80;;;2.72;;
80854;SDS011;70272;49.222;-122.892;2023-07-29T01:18:26;3.58;;;2.50;;
80854;SDS011;70272;49.222;-122.892;2023-07-29T01:21:00;3.85;;;2.60;;
80854;SDS011;70272;49.222;-122.892;2023-07-29T01:23:30;2.80;;;2.20;;
80854;SDS011;70272;49.222;-122.892;2023-07-29T01:25:57;3.95;;;2.67;;
80854;SDS011;70272;49.222;-122.892;2023-07-29T01:28:23;3.45;;;2.60;;
80854;SDS011;70272;49.222;-122.892;2023-07-29T01:30:51;3.47;;;2.50;;
80854;SDS011;70272;49.222;-122.892;2023-07-29T01:33:20;4.43;;;2.47;;
80854;SDS011;70272;49.222;-122.892;2023-07-29T01:36:13;4.30;;;2.80;;
80854;SDS011;70272;49.222;-122.892;2023-07-29T01:38:40;3.45;;;2.40;;
80854;SDS011;70272;49.222;-122.892;2023-07-29T01:41:07;3.92;;;2.67;;
80854;SDS011;70272;49.222;-122.892;2023-07-29T01:43:34;4.40;;;2.53;;
80854;SDS011;70272;49.222;-122.892;2023-07-29T01:46:07;3.05;;;2.20;;
80854;SDS011;70272;49.222;-122.892;2023-07-29T01:48:33;4.00;;;2.40;;
80854;SDS011;70272;49.222;-122.892;2023-07-29T01:50:59;3.70;;;2.35;;
80854;SDS011;70272;49.222;-122.892;2023-07-29T01:53:25;3.10;;;2.30;;
80854;SDS011;70272;49.222;-122.892;2023-07-29T01:55:52;3.85;;;2.40;;
80854;SDS011;70272;49.222;-122.892;2023-07-29T01:58:18;3.63;;;2.40;;
80854;SDS011;70272;49.222;-122.892;2023-07-29T02:00:44;4.60;;;2.50;;
80854;SDS011;70272;49.222;-122.892;2023-07-29T02:03:10;5.00;;;2.40;;
80854;SDS011;70272;49.222;-122.892;2023-07-29T02:05:37;4.05;;;2.30;;
80854;SDS011;70272;49.222;-122.892;2023-07-29T02:08:03;3.03;;;2.10;;
80854;SDS011;70272;49.222;-122.892;2023-07-29T02:10:29;2.80;;;2.08;;
80854;SDS011;70272;49.222;-122.892;2023-07-29T02:12:55;4.30;;;2.20;;
80854;SDS011;70272;49.222;-122.892;2023-07-29T02:15:22;3.47;;;2.30;;
80854;SDS011;70272;49.222;-122.892;2023-07-29T02:17:49;3.75;;;2.30;;
80854;SDS011;70272;49.222;-122.892;2023-07-29T02:20:17;2.28;;;1.70;;
80854;SDS011;70272;49.222;-122.892;2023-07-29T02:22:43;3.30;;;2.17;;
80854;SDS011;70272;49.222;-122.892;2023-07-29T02:25:09;3.08;;;2.10;;
80854;SDS011;70272;49.222;-122.892;2023-07-29T02:27:35;2.97;;;2.00;;
80854;SDS011;70272;49.222;-122.892;2023-07-29T02:30:02;3.78;;;2.33;;
80854;SDS011;70272;49.222;-122.892;2023-07-29T02:32:29;4.47;;;2.30;;
80854;SDS011;70272;49.222;-122.892;2023-07-29T02:34:55;3.72;;;1.90;;
80854;SDS011;70272;49.222;-122.892;2023-07-29T02:37:21;3.97;;;2.20;;
80854;SDS011;70272;49.222;-122.892;2023-07-29T02:39:47;3.15;;;1.85;;
80854;SDS011;70272;49.222;-122.892;2023-07-29T02:42:14;3.75;;;2.25;;
80854;SDS011;70272;49.222;-122.892;2023-07-29T02:44:40;2.97;;;2.20;;
80854;SDS011;70272;49.222;-122.892;2023-07-29T02:47:07;3.33;;;2.00;;
80854;SDS011;70272;49.222;-122.892;2023-07-29T02:49:33;3.42;;;2.40;;
80854;SDS011;70272;49.222;-122.892;2023-07-29T02:51:59;3.25;;;2.30;;
80854;SDS011;70272;49.222;-122.892;2023-07-29T02:54:25;2.50;;;1.90;;
80854;SDS011;70272;49.222;-122.892;2023-07-29T02:56:52;3.70;;;2.30;;
80854;SDS011;70272;49.222;-122.892;2023-07-29T02:59:19;3.35;;;2.30;;
80854;SDS011;70272;49.222;-122.892;2023-07-29T03:01:45;4.05;;;2.50;;
80854;SDS011;70272;49.222;-122.892;2023-07-29T03:04:12;3.42;;;2.20;;
80854;SDS011;70272;49.222;-122.892;2023-07-29T03:06:38;3.67;;;2.53;;
80854;SDS011;70272;49.222;-122.892;2023-07-29T03:09:04;4.05;;;2.40;;
80854;SDS011;70272;49.222;-122.892;2023-07-29T03:11:30;4.25;;;2.72;;
80854;SDS011;70272;49.222;-122.892;2023-07-29T03:13:57;3.75;;;2.80;;
80854;SDS011;70272;49.222;-122.892;2023-07-29T03:16:23;4.75;;;2.47;;
80854;SDS011;70272;49.222;-122.892;2023-07-29T03:18:50;3.72;;;2.60;;
80854;SDS011;70272;49.222;-122.892;2023-07-29T03:21:16;4.35;;;2.30;;
80854;SDS011;70272;49.222;-122.892;2023-07-29T03:23:42;3.60;;;2.25;;
80854;SDS011;70272;49.222;-122.892;2023-07-29T03:26:08;4.20;;;2.60;;
80854;SDS011;70272;49.222;-122.892;2023-07-29T03:28:38;4.75;;;2.63;;
80854;SDS011;70272;49.222;-122.892;2023-07-29T03:31:06;5.55;;;2.63;;
80854;SDS011;70272;49.222;-122.892;2023-07-29T03:33:33;3.58;;;2.50;;
80854;SDS011;70272;49.222;-122.892;2023-07-29T03:35:59;3.80;;;2.47;;
80854;SDS011;70272;49.222;-122.892;2023-07-29T03:38:25;6.90;;;2.92;;
80854;SDS011;70272;49.222;-122.892;2023-07-29T03:40:52;4.85;;;2.80;;
80854;SDS011;70272;49.222;-122.892;2023-07-29T03:43:19;5.53;;;2.70;;
80854;SDS011;70272;49.222;-122.892;2023-07-29T03:45:45;4.25;;;3.10;;
80854;SDS011;70272;49.222;-122.892;2023-07-29T03:48:11;4.30;;;3.03;;
80854;SDS011;70272;49.222;-122.892;2023-07-29T03:50:38;4.13;;;2.60;;
80854;SDS011;70272;49.222;-122.892;2023-07-29T03:53:04;4.85;;;3.00;;
80854;SDS011;70272;49.222;-122.892;2023-07-29T03:55:31;4.47;;;2.88;;
80854;SDS011;70272;49.222;-122.892;2023-07-29T03:57:58;4.53;;;2.88;;
80854;SDS011;70272;49.222;-122.892;2023-07-29T04:00:25;4.78;;;2.70;;
80854;SDS011;70272;49.222;-122.892;2023-07-29T04:02:51;4.93;;;2.85;;
80854;SDS011;70272;49.222;-122.892;2023-07-29T04:05:17;3.85;;;2.80;;
80854;SDS011;70272;49.222;-122.892;2023-07-29T04:07:44;4.63;;;3.13;;
80854;SDS011;70272;49.222;-122.892;2023-07-29T04:10:10;5.57;;;2.90;;
80854;SDS011;70272;49.222;-122.892;2023-07-29T04:12:36;5.07;;;2.85;;
80854;SDS011;70272;49.222;-122.892;2023-07-29T04:15:03;5.25;;;2.92;;
80854;SDS011;70272;49.222;-122.892;2023-07-29T04:17:29;6.25;;;3.45;;
80854;SDS011;70272;49.222;-122.892;2023-07-29T04:19:56;4.75;;;3.58;;
80854;SDS011;70272;49.222;-122.892;2023-07-29T04:22:22;6.45;;;3.50;;
80854;SDS011;70272;49.222;-122.892;2023-07-29T04:24:48;6.43;;;3.35;;
80854;SDS011;70272;49.222;-122.892;2023-07-29T04:27:14;4.55;;;3.17;;
80854;SDS011;70272;49.222;-122.892;2023-07-29T04:29:41;4.45;;;3.15;;
80854;SDS011;70272;49.222;-122.892;2023-07-29T04:32:07;5.82;;;3.47;;
80854;SDS011;70272;49.222;-122.892;2023-07-29T04:34:33;5.82;;;2.92;;
80854;SDS011;70272;49.222;-122.892;2023-07-29T04:36:59;6.07;;;3.22;;
80854;SDS011;70272;49.222;-122.892;2023-07-29T04:39:26;4.60;;;3.05;;
80854;SDS011;70272;49.222;-122.892;2023-07-29T04:41:52;4.78;;;3.28;;
80854;SDS011;70272;49.222;-122.892;2023-07-29T04:44:18;5.00;;;3.05;;
80854;SDS011;70272;49.222;-122.892;2023-07-29T04:46:45;5.65;;;3.72;;
80854;SDS011;70272;49.222;-122.892;2023-07-29T04:49:11;4.43;;;3.20;;
80854;SDS011;70272;49.222;-122.892;2023-07-29T04:51:37;4.97;;;3.20;;
80854;SDS011;70272;49.222;-122.892;2023-07-29T04:54:04;4.80;;;2.88;;
80854;SDS011;70272;49.222;-122.892;2023-07-29T04:56:30;6.28;;;3.65;;
80854;SDS011;70272;49.222;-122.892;2023-07-29T04:58:56;4.78;;;3.15;;
80854;SDS011;70272;49.222;-122.892;2023-07-29T05:01:23;5.80;;;3.15;;
80854;SDS011;70272;49.222;-122.892;2023-07-29T05:03:50;4.47;;;3.13;;
80854;SDS011;70272;49.222;-122.892;2023-07-29T05:06:17;5.10;;;3.15;;
80854;SDS011;70272;49.222;-122.892;2023-07-29T05:08:43;4.38;;;3.10;;
80854;SDS011;70272;49.222;-122.892;2023-07-29T05:11:09;4.32;;;3.20;;
80854;SDS011;70272;49.222;-122.892;2023-07-29T05:13:36;5.35;;;3.30;;
80854;SDS011;70272;49.222;-122.892;2023-07-29T05:16:03;4.97;;;3.05;;
80854;SDS011;70272;49.222;-122.892;2023-07-29T05:18:29;4.70;;;3.17;;
80854;SDS011;70272;49.222;-122.892;2023-07-29T05:20:55;5.15;;;3.60;;
80854;SDS011;70272;49.222;-122.892;2023-07-29T05:23:21;6.30;;;3.10;;
80854;SDS011;70272;49.222;-122.892;2023-07-29T05:25:48;4.78;;;3.50;;
80854;SDS011;70272;49.222;-122.892;2023-07-29T05:28:14;5.13;;;3.40;;
80854;SDS011;70272;49.222;-122.892;2023-07-29T05:30:40;4.18;;;3.33;;
80854;SDS011;70272;49.222;-122.892;2023-07-29T05:33:06;6.97;;;4.15;;
80854;SDS011;70272;49.222;-122.892;2023-07-29T05:35:33;7.00;;;3.60;;
80854;SDS011;70272;49.222;-122.892;2023-07-29T05:38:00;6.43;;;3.70;;
80854;SDS011;70272;49.222;-122.892;2023-07-29T05:40:26;5.63;;;3.85;;
80854;SDS011;70272;49.222;-122.892;2023-07-29T05:42:52;5.25;;;3.80;;
80854;SDS011;70272;49.222;-122.892;2023-07-29T05:45:18;7.22;;;3.42;;
80854;SDS011;70272;49.222;-122.892;2023-07-29T05:47:45;5.35;;;3.47;;
80854;SDS011;70272;49.222;-122.892;2023-07-29T05:50:11;5.28;;;3.38;;
80854;SDS011;70272;49.222;-122.892;2023-07-29T05:52:38;5.97;;;3.30;;
80854;SDS011;70272;49.222;-122.892;2023-07-29T05:55:04;5.97;;;3.67;;
80854;SDS011;70272;49.222;-122.892;2023-07-29T05:57:30;6.18;;;4.28;;
80854;SDS011;70272;49.222;-122.892;2023-07-29T05:59:57;3.78;;;3.33;;
80854;SDS011;70272;49.222;-122.892;2023-07-29T06:02:23;5.22;;;3.15;;
80854;SDS011;70272;49.222;-122.892;2023-07-29T06:04:49;7.05;;;3.90;;
80854;SDS011;70272;49.222;-122.892;2023-07-29T06:07:16;4.55;;;3.42;;
80854;SDS011;70272;49.222;-122.892;2023-07-29T06:09:42;7.63;;;3.25;;
80854;SDS011;70272;49.222;-122.892;2023-07-29T06:12:08;6.82;;;3.67;;
80854;SDS011;70272;49.222;-122.892;2023-07-29T06:14:35;6.13;;;3.85;;
80854;SDS011;70272;49.222;-122.892;2023-07-29T06:17:01;6.75;;;3.30;;
80854;SDS011;70272;49.222;-122.892;2023-07-29T06:19:27;5.70;;;3.47;;
80854;SDS011;70272;49.222;-122.892;2023-07-29T06:21:54;7.20;;;3.70;;
80854;SDS011;70272;49.222;-122.892;2023-07-29T06:24:21;6.60;;;3.75;;
80854;SDS011;70272;49.222;-122.892;2023-07-29T06:26:47;5.68;;;3.53;;
80854;SDS011;70272;49.222;-122.892;2023-07-29T06:29:15;6.93;;;3.40;;
80854;SDS011;70272;49.222;-122.892;2023-07-29T06:31:42;6.97;;;3.53;;
80854;SDS011;70272;49.222;-122.892;2023-07-29T06:34:08;5.78;;;3.60;;
80854;SDS011;70272;49.222;-122.892;2023-07-29T06:36:34;5.65;;;3.33;;
80854;SDS011;70272;49.222;-122.892;2023-07-29T06:39:00;7.03;;;3.45;;
80854;SDS011;70272;49.222;-122.892;2023-07-29T06:41:27;9.07;;;3.78;;
80854;SDS011;70272;49.222;-122.892;2023-07-29T06:43:53;5.93;;;3.20;;
80854;SDS011;70272;49.222;-122.892;2023-07-29T06:46:19;6.30;;;3.38;;
80854;SDS011;70272;49.222;-122.892;2023-07-29T06:48:45;4.45;;;3.38;;
80854;SDS011;70272;49.222;-122.892;2023-07-29T06:51:12;5.50;;;3.95;;
80854;SDS011;70272;49.222;-122.892;2023-07-29T06:53:38;5.72;;;3.53;;
80854;SDS011;70272;49.222;-122.892;2023-07-29T06:56:04;5.75;;;3.42;;
80854;SDS011;70272;49.222;-122.892;2023-07-29T06:58:30;6.57;;;3.33;;
80854;SDS011;70272;49.222;-122.892;2023-07-29T07:00:57;5.90;;;3.78;;
80854;SDS011;70272;49.222;-122.892;2023-07-29T07:03:23;5.55;;;3.55;;
80854;SDS011;70272;49.222;-122.892;2023-07-29T07:05:49;5.90;;;3.47;;
80854;SDS011;70272;49.222;-122.892;2023-07-29T07:08:16;4.72;;;3.50;;
80854;SDS011;70272;49.222;-122.892;2023-07-29T07:10:42;4.60;;;3.75;;
80854;SDS011;70272;49.222;-122.892;2023-07-29T07:13:09;6.97;;;3.70;;
80854;SDS011;70272;49.222;-122.892;2023-07-29T07:15:35;6.10;;;4.00;;
80854;SDS011;70272;49.222;-122.892;2023-07-29T07:18:01;5.03;;;3.40;;
80854;SDS011;70272;49.222;-122.892;2023-07-29T07:20:27;6.03;;;3.47;;
80854;SDS011;70272;49.222;-122.892;2023-07-29T07:22:54;6.38;;;3.80;;
80854;SDS011;70272;49.222;-122.892;2023-07-29T07:25:21;4.72;;;3.30;;
80854;SDS011;70272;49.222;-122.892;2023-07-29T07:27:48;6.30;;;3.88;;
80854;SDS011;70272;49.222;-122.892;2023-07-29T07:30:14;5.03;;;3.47;;
80854;SDS011;70272;49.222;-122.892;2023-07-29T07:32:40;7.07;;;3.47;;
80854;SDS011;70272;49.222;-122.892;2023-07-29T07:35:07;5.95;;;3.67;;
80854;SDS011;70272;49.222;-122.892;2023-07-29T07:37:33;5.30;;;3.45;;
80854;SDS011;70272;49.222;-122.892;2023-07-29T07:40:00;6.28;;;3.80;;
80854;SDS011;70272;49.222;-122.892;2023-07-29T07:42:26;5.75;;;3.33;;
80854;SDS011;70272;49.222;-122.892;2023-07-29T07:44:52;8.88;;;3.90;;
80854;SDS011;70272;49.222;-122.892;2023-07-29T07:47:18;5.55;;;3.58;;
80854;SDS011;70272;49.222;-122.892;2023-07-29T07:49:45;4.90;;;3.40;;
80854;SDS011;70272;49.222;-122.892;2023-07-29T07:52:11;5.40;;;3.25;;
80854;SDS011;70272;49.222;-122.892;2023-07-29T07:54:37;4.60;;;3.25;;
80854;SDS011;70272;49.222;-122.892;2023-07-29T07:57:03;4.63;;;2.83;;
80854;SDS011;70272;49.222;-122.892;2023-07-29T07:59:30;5.68;;;3.40;;
80854;SDS011;70272;49.222;-122.892;2023-07-29T08:01:56;6.25;;;3.35;;
80854;SDS011;70272;49.222;-122.892;2023-07-29T08:04:22;4.75;;;3.08;;
80854;SDS011;70272;49.222;-122.892;2023-07-29T08:06:48;4.30;;;2.95;;
80854;SDS011;70272;49.222;-122.892;2023-07-29T08:09:15;6.07;;;3.35;;
80854;SDS011;70272;49.222;-122.892;2023-07-29T08:11:41;6.85;;;3.40;;
80854;SDS011;70272;49.222;-122.892;2023-07-29T08:14:07;4.68;;;3.45;;
80854;SDS011;70272;49.222;-122.892;2023-07-29T08:16:33;4.53;;;3.03;;
80854;SDS011;70272;49.222;-122.892;2023-07-29T08:19:00;4.75;;;3.33;;
80854;SDS011;70272;49.222;-122.892;2023-07-29T08:21:26;5.05;;;2.92;;
80854;SDS011;70272;49.222;-122.892;2023-07-29T08:23:53;5.65;;;4.10;;
80854;SDS011;70272;49.222;-122.892;2023-07-29T08:26:19;5.32;;;3.45;;
80854;SDS011;70272;49.222;-122.892;2023-07-29T08:28:46;4.57;;;3.22;;
80854;SDS011;70272;49.222;-122.892;2023-07-29T08:31:13;5.05;;;3.13;;
80854;SDS011;70272;49.222;-122.892;2023-07-29T08:33:39;5.03;;;3.47;;
80854;SDS011;70272;49.222;-122.892;2023-07-29T08:36:06;5.38;;;3.22;;
80854;SDS011;70272;49.222;-122.892;2023-07-29T08:38:32;4.30;;;3.33;;
80854;SDS011;70272;49.222;-122.892;2023-07-29T08:41:13;4.53;;;2.97;;
80854;SDS011;70272;49.222;-122.892;2023-07-29T08:43:43;4.57;;;3.00;;
80854;SDS011;70272;49.222;-122.892;2023-07-29T08:46:33;5.22;;;3.00;;
80854;SDS011;70272;49.222;-122.892;2023-07-29T08:48:59;5.57;;;3.05;;
80854;SDS011;70272;49.222;-122.892;2023-07-29T08:51:27;4.85;;;3.03;;
80854;SDS011;70272;49.222;-122.892;2023-07-29T08:53:53;4.13;;;3.08;;
80854;SDS011;70272;49.222;-122.892;2023-07-29T08:56:19;4.72;;;2.72;;
80854;SDS011;70272;49.222;-122.892;2023-07-29T08:58:46;4.72;;;3.30;;
80854;SDS011;70272;49.222;-122.892;2023-07-29T09:01:12;4.20;;;3.13;;
80854;SDS011;70272;49.222;-122.892;2023-07-29T09:03:40;5.20;;;2.80;;
80854;SDS011;70272;49.222;-122.892;2023-07-29T09:06:07;4.55;;;2.97;;
80854;SDS011;70272;49.222;-122.892;2023-07-29T09:08:34;6.60;;;3.45;;
80854;SDS011;70272;49.222;-122.892;2023-07-29T09:11:00;5.93;;;3.10;;
80854;SDS011;70272;49.222;-122.892;2023-07-29T09:13:26;3.58;;;2.85;;
80854;SDS011;70272;49.222;-122.892;2023-07-29T09:15:58;4.72;;;3.00;;
80854;SDS011;70272;49.222;-122.892;2023-07-29T09:18:26;5.63;;;3.10;;
80854;SDS011;70272;49.222;-122.892;2023-07-29T09:20:52;3.75;;;3.10;;
80854;SDS011;70272;49.222;-122.892;2023-07-29T09:23:18;4.53;;;3.10;;
80854;SDS011;70272;49.222;-122.892;2023-07-29T09:25:47;4.38;;;3.38;;
80854;SDS011;70272;49.222;-122.892;2023-07-29T09:28:15;5.53;;;2.83;;
80854;SDS011;70272;49.222;-122.892;2023-07-29T09:30:42;5.97;;;3.17;;
80854;SDS011;70272;49.222;-122.892;2023-07-29T09:33:10;5.70;;;3.10;;
80854;SDS011;70272;49.222;-122.892;2023-07-29T09:35:37;4.20;;;2.83;;
80854;SDS011;70272;49.222;-122.892;2023-07-29T09:38:04;5.78;;;2.83;;
80854;SDS011;70272;49.222;-122.892;2023-07-29T09:40:34;4.07;;;2.67;;
80854;SDS011;70272;49.222;-122.892;2023-07-29T09:43:02;5.28;;;2.90;;
80854;SDS011;70272;49.222;-122.892;2023-07-29T09:45:29;5.15;;;2.70;;
80854;SDS011;70272;49.222;-122.892;2023-07-29T09:47:56;5.80;;;2.92;;
80854;SDS011;70272;49.222;-122.892;2023-07-29T09:50:24;4.75;;;2.53;;
80854;SDS011;70272;49.222;-122.892;2023-07-29T09:52:51;4.30;;;2.70;;
80854;SDS011;70272;49.222;-122.892;2023-07-29T09:55:19;5.32;;;2.67;;
80854;SDS011;70272;49.222;-122.892;2023-07-29T09:57:47;5.57;;;2.72;;
80854;SDS011;70272;49.222;-122.892;2023-07-29T10:00:13;5.68;;;2.78;;
80854;SDS011;70272;49.222;-122.892;2023-07-29T10:02:40;4.88;;;2.78;;
80854;SDS011;70272;49.222;-122.892;2023-07-29T10:05:09;4.68;;;2.67;;
80854;SDS011;70272;49.222;-122.892;2023-07-29T10:07:39;4.78;;;2.60;;
80854;SDS011;70272;49.222;-122.892;2023-07-29T10:10:06;5.05;;;2.78;;
80854;SDS011;70272;49.222;-122.892;2023-07-29T10:12:33;5.25;;;2.80;;
80854;SDS011;70272;49.222;-122.892;2023-07-29T10:15:04;4.43;;;2.67;;
80854;SDS011;70272;49.222;-122.892;2023-07-29T10:17:36;5.82;;;2.90;;
80854;SDS011;70272;49.222;-122.892;2023-07-29T10:20:03;6.90;;;3.03;;
80854;SDS011;70272;49.222;-122.892;2023-07-29T10:22:39;5.43;;;2.92;;
80854;SDS011;70272;49.222;-122.892;2023-07-29T10:25:24;5.35;;;2.70;;
80854;SDS011;70272;49.222;-122.892;2023-07-29T10:30:27;5.43;;;2.63;;
80854;SDS011;70272;49.222;-122.892;2023-07-29T10:32:54;5.82;;;2.50;;
80854;SDS011;70272;49.222;-122.892;2023-07-29T10:35:23;4.25;;;2.80;;
80854;SDS011;70272;49.222;-122.892;2023-07-29T10:37:50;3.42;;;2.47;;
80854;SDS011;70272;49.222;-122.892;2023-07-29T10:40:18;5.47;;;2.72;;
80854;SDS011;70272;49.222;-122.892;2023-07-29T10:43:06;3.50;;;2.53;;
80854;SDS011;70272;49.222;-122.892;2023-07-29T10:45:39;6.60;;;2.90;;
80854;SDS011;70272;49.222;-122.892;2023-07-29T10:48:53;5.35;;;2.78;;
80854;SDS011;70272;49.222;-122.892;2023-07-29T10:54:00;5.07;;;3.03;;
80854;SDS011;70272;49.222;-122.892;2023-07-29T10:56:28;7.13;;;2.42;;
80854;SDS011;70272;49.222;-122.892;2023-07-29T10:58:59;5.00;;;2.65;;
80854;SDS011;70272;49.222;-122.892;2023-07-29T11:01:38;4.65;;;2.50;;
80854;SDS011;70272;49.222;-122.892;2023-07-29T11:07:30;4.97;;;2.42;;
80854;SDS011;70272;49.222;-122.892;2023-07-29T11:09:58;5.22;;;2.20;;
80854;SDS011;70272;49.222;-122.892;2023-07-29T11:17:51;4.10;;;2.50;;
80854;SDS011;70272;49.222;-122.892;2023-07-29T11:20:19;4.85;;;2.80;;
80854;SDS011;70272;49.222;-122.892;2023-07-29T11:22:47;3.45;;;2.15;;
80854;SDS011;70272;49.222;-122.892;2023-07-29T11:25:14;4.78;;;2.75;;
80854;SDS011;70272;49.222;-122.892;2023-07-29T11:27:41;4.18;;;2.65;;
80854;SDS011;70272;49.222;-122.892;2023-07-29T11:30:08;4.15;;;2.47;;
80854;SDS011;70272;49.222;-122.892;2023-07-29T11:32:36;5.05;;;2.40;;
80854;SDS011;70272;49.222;-122.892;2023-07-29T11:35:04;4.50;;;2.65;;
80854;SDS011;70272;49.222;-122.892;2023-07-29T11:37:32;5.30;;;2.33;;
80854;SDS011;70272;49.222;-122.892;2023-07-29T11:39:59;4.85;;;3.05;;
80854;SDS011;70272;49.222;-122.892;2023-07-29T11:42:26;5.63;;;2.90;;
80854;SDS011;70272;49.222;-122.892;2023-07-29T11:44:58;4.68;;;2.90;;
80854;SDS011;70272;49.222;-122.892;2023-07-29T11:47:24;4.00;;;2.40;;
80854;SDS011;70272;49.222;-122.892;2023-07-29T11:49:51;4.50;;;2.60;;
80854;SDS011;70272;49.222;-122.892;2023-07-29T11:52:17;5.20;;;2.83;;
80854;SDS011;70272;49.222;-122.892;2023-07-29T11:54:48;4.00;;;2.58;;
80854;SDS011;70272;49.222;-122.892;2023-07-29T11:57:15;5.07;;;2.70;;
80854;SDS011;70272;49.222;-122.892;2023-07-29T11:59:43;4.25;;;2.58;;
80854;SDS011;70272;49.222;-122.892;2023-07-29T12:02:10;4.43;;;2.83;;
80854;SDS011;70272;49.222;-122.892;2023-07-29T12:04:39;5.82;;;2.28;;
80854;SDS011;70272;49.222;-122.892;2023-07-29T12:07:06;7.47;;;3.08;;
80854;SDS011;70272;49.222;-122.892;2023-07-29T12:09:33;7.25;;;3.03;;
80854;SDS011;70272;49.222;-122.892;2023-07-29T12:12:01;5.70;;;2.78;;
80854;SDS011;70272;49.222;-122.892;2023-07-29T12:14:28;4.38;;;2.38;;
80854;SDS011;70272;49.222;-122.892;2023-07-29T12:16:54;6.78;;;3.00;;
80854;SDS011;70272;49.222;-122.892;2023-07-29T12:19:21;5.28;;;2.58;;
80854;SDS011;70272;49.222;-122.892;2023-07-29T12:21:48;4.47;;;2.55;;
80854;SDS011;70272;49.222;-122.892;2023-07-29T12:24:14;5.80;;;2.65;;
80854;SDS011;70272;49.222;-122.892;2023-07-29T12:26:41;5.35;;;2.40;;
80854;SDS011;70272;49.222;-122.892;2023-07-29T12:29:14;5.53;;;2.78;;
80854;SDS011;70272;49.222;-122.892;2023-07-29T12:31:40;6.13;;;2.80;;
80854;SDS011;70272;49.222;-122.892;2023-07-29T12:34:07;6.75;;;3.35;;
80854;SDS011;70272;49.222;-122.892;2023-07-29T12:36:43;5.55;;;3.35;;
80854;SDS011;70272;49.222;-122.892;2023-07-29T12:39:25;6.82;;;2.95;;
80854;SDS011;70272;49.222;-122.892;2023-07-29T12:41:53;4.72;;;3.03;;
80854;SDS011;70272;49.222;-122.892;2023-07-29T12:44:20;6.07;;;3.00;;
80854;SDS011;70272;49.222;-122.892;2023-07-29T12:46:47;6.05;;;2.88;;
80854;SDS011;70272;49.222;-122.892;2023-07-29T12:49:14;5.20;;;2.88;;
80854;SDS011;70272;49.222;-122.892;2023-07-29T12:51:40;6.75;;;2.92;;
80854;SDS011;70272;49.222;-122.892;2023-07-29T12:54:07;6.45;;;2.70;;
80854;SDS011;70272;49.222;-122.892;2023-07-29T12:56:33;5.47;;;3.15;;
80854;SDS011;70272;49.222;-122.892;2023-07-29T12:59:00;7.32;;;3.33;;
80854;SDS011;70272;49.222;-122.892;2023-07-29T13:01:27;5.78;;;2.72;;
80854;SDS011;70272;49.222;-122.892;2023-07-29T13:03:54;5.03;;;2.90;;
80854;SDS011;70272;49.222;-122.892;2023-07-29T13:06:21;7.10;;;3.28;;
80854;SDS011;70272;49.222;-122.892;2023-07-29T13:08:48;4.63;;;2.83;;
80854;SDS011;70272;49.222;-122.892;2023-07-29T13:11:15;6.47;;;2.92;;
80854;SDS011;70272;49.222;-122.892;2023-07-29T13:13:41;7.28;;;3.33;;
80854;SDS011;70272;49.222;-122.892;2023-07-29T13:16:08;7.88;;;3.22;;
80854;SDS011;70272;49.222;-122.892;2023-07-29T13:18:34;8.18;;;3.88;;
80854;SDS011;70272;49.222;-122.892;2023-07-29T13:21:00;8.32;;;3.35;;
80854;SDS011;70272;49.222;-122.892;2023-07-29T13:23:26;6.53;;;3.78;;
80854;SDS011;70272;49.222;-122.892;2023-07-29T13:25:55;4.18;;;2.53;;
80854;SDS011;70272;49.222;-122.892;2023-07-29T13:28:21;6.40;;;3.33;;
80854;SDS011;70272;49.222;-122.892;2023-07-29T13:30:48;5.82;;;3.20;;
80854;SDS011;70272;49.222;-122.892;2023-07-29T13:33:15;6.13;;;3.38;;
80854;SDS011;70272;49.222;-122.892;2023-07-29T13:35:42;8.35;;;3.88;;
80854;SDS011;70272;49.222;-122.892;2023-07-29T13:38:08;7.15;;;3.70;;
80854;SDS011;70272;49.222;-122.892;2023-07-29T13:40:34;9.45;;;3.95;;
80854;SDS011;70272;49.222;-122.892;2023-07-29T13:43:01;10.40;;;3.67;;
80854;SDS011;70272;49.222;-122.892;2023-07-29T13:45:27;8.02;;;3.42;;
80854;SDS011;70272;49.222;-122.892;2023-07-29T13:47:53;7.50;;;3.83;;
80854;SDS011;70272;49.222;-122.892;2023-07-29T13:50:19;6.88;;;3.10;;
80854;SDS011;70272;49.222;-122.892;2023-07-29T13:52:46;8.00;;;3.65;;
80854;SDS011;70272;49.222;-122.892;2023-07-29T13:55:12;6.53;;;3.58;;
80854;SDS011;70272;49.222;-122.892;2023-07-29T13:57:39;9.88;;;3.95;;
80854;SDS011;70272;49.222;-122.892;2023-07-29T14:00:06;8.82;;;3.60;;
80854;SDS011;70272;49.222;-122.892;2023-07-29T14:02:33;6.18;;;3.25;;
80854;SDS011;70272;49.222;-122.892;2023-07-29T14:05:00;9.70;;;3.80;;
80854;SDS011;70272;49.222;-122.892;2023-07-29T14:07:26;6.63;;;3.35;;
80854;SDS011;70272;49.222;-122.892;2023-07-29T14:09:52;10.35;;;4.18;;
80854;SDS011;70272;49.222;-122.892;2023-07-29T14:12:18;11.23;;;5.00;;
80854;SDS011;70272;49.222;-122.892;2023-07-29T14:14:45;14.93;;;5.57;;
80854;SDS011;70272;49.222;-122.892;2023-07-29T14:17:11;12.05;;;4.18;;
80854;SDS011;70272;49.222;-122.892;2023-07-29T14:19:37;7.45;;;3.55;;
80854;SDS011;70272;49.222;-122.892;2023-07-29T14:22:03;7.45;;;3.72;;
80854;SDS011;70272;49.222;-122.892;2023-07-29T14:24:30;7.82;;;3.53;;
80854;SDS011;70272;49.222;-122.892;2023-07-29T14:26:56;7.78;;;3.72;;